sensor_id;sensor_type;location;lat;lon;timestamp;temperature;humidity
60723;DHT22;46574;52.818;6.516;2022-09-12T00:00:12;15.20;99.90
60723;DHT22;46574;52.818;6.516;2022-09-12T00:02:38;15.20;99.90
60723;DHT22;46574;52.818;6.516;2022-09-12T00:05:04;15.20;99.90
60723;DHT22;46574;52.818;6.516;2022-09-12T00:07:31;15.20;99.90
60723;DHT22;46574;52.818;6.516;2022-09-12T00:09:57;15.20;99.90
60723;DHT22;46574;52.818;6.516;2022-09-12T00:12:23;15.20;99.90
60723;DHT22;46574;52.818;6.516;2022-09-12T00:14:49;15.20;99.90
60723;DHT22;46574;52.818;6.516;2022-09-12T00:17:14;15.20;99.90
60723;DHT22;46574;52.818;6.516;2022-09-12T00:19:40;15.20;99.90
60723;DHT22;46574;52.818;6.516;2022-09-12T00:22:05;15.20;99.90
60723;DHT22;46574;52.818;6.516;2022-09-12T00:24:31;15.20;99.90
60723;DHT22;46574;52.818;6.516;2022-09-12T00:26:58;15.10;99.90
60723;DHT22;46574;52.818;6.516;2022-09-12T00:29:24;15.10;99.90
60723;DHT22;46574;52.818;6.516;2022-09-12T00:31:49;15.10;99.90
60723;DHT22;46574;52.818;6.516;2022-09-12T00:34:15;15.10;99.90
60723;DHT22;46574;52.818;6.516;2022-09-12T00:36:41;15.10;99.90
60723;DHT22;46574;52.818;6.516;2022-09-12T00:39:06;15.10;99.90
60723;DHT22;46574;52.818;6.516;2022-09-12T00:41:36;15.00;99.90
60723;DHT22;46574;52.818;6.516;2022-09-12T00:46:46;15.10;99.90
60723;DHT22;46574;52.818;6.516;2022-09-12T00:49:28;15.10;99.90
60723;DHT22;46574;52.818;6.516;2022-09-12T00:52:10;15.00;99.90
60723;DHT22;46574;52.818;6.516;2022-09-12T00:54:42;15.00;99.90
60723;DHT22;46574;52.818;6.516;2022-09-12T00:57:12;15.00;99.90
60723;DHT22;46574;52.818;6.516;2022-09-12T01:00:00;15.00;99.90
60723;DHT22;46574;52.818;6.516;2022-09-12T01:02:30;15.10;99.90
60723;DHT22;46574;52.818;6.516;2022-09-12T01:04:56;15.00;99.90
60723;DHT22;46574;52.818;6.516;2022-09-12T01:07:22;15.00;99.90
60723;DHT22;46574;52.818;6.516;2022-09-12T01:09:48;15.00;99.90
60723;DHT22;46574;52.818;6.516;2022-09-12T01:12:15;15.10;99.90
60723;DHT22;46574;52.818;6.516;2022-09-12T01:14:42;15.10;99.90
60723;DHT22;46574;52.818;6.516;2022-09-12T01:17:11;15.10;99.90
60723;DHT22;46574;52.818;6.516;2022-09-12T01:20:12;15.10;99.90
60723;DHT22;46574;52.818;6.516;2022-09-12T01:28:58;15.10;99.90
60723;DHT22;46574;52.818;6.516;2022-09-12T01:34:22;15.10;99.90
60723;DHT22;46574;52.818;6.516;2022-09-12T01:37:03;15.10;99.90
60723;DHT22;46574;52.818;6.516;2022-09-12T01:39:38;15.10;99.90
60723;DHT22;46574;52.818;6.516;2022-09-12T01:42:10;15.00;99.90
60723;DHT22;46574;52.818;6.516;2022-09-12T01:44:58;15.00;99.90
60723;DHT22;46574;52.818;6.516;2022-09-12T01:47:38;15.00;99.90
60723;DHT22;46574;52.818;6.516;2022-09-12T01:50:27;15.00;99.90
60723;DHT22;46574;52.818;6.516;2022-09-12T01:53:10;15.00;99.90
60723;DHT22;46574;52.818;6.516;2022-09-12T01:56:02;15.00;99.90
60723;DHT22;46574;52.818;6.516;2022-09-12T01:58:42;15.00;99.90
60723;DHT22;46574;52.818;6.516;2022-09-12T02:01:32;15.00;99.90
60723;DHT22;46574;52.818;6.516;2022-09-12T02:04:02;15.00;99.90
60723;DHT22;46574;52.818;6.516;2022-09-12T02:06:31;15.00;99.90
60723;DHT22;46574;52.818;6.516;2022-09-12T02:09:20;14.90;99.90
60723;DHT22;46574;52.818;6.516;2022-09-12T02:11:49;15.00;99.90
60723;DHT22;46574;52.818;6.516;2022-09-12T02:14:22;14.90;99.90
60723;DHT22;46574;52.818;6.516;2022-09-12T02:16:55;14.90;99.90
60723;DHT22;46574;52.818;6.516;2022-09-12T02:19:26;14.90;99.90
60723;DHT22;46574;52.818;6.516;2022-09-12T02:21:55;14.90;99.90
60723;DHT22;46574;52.818;6.516;2022-09-12T02:24:25;14.90;99.90
60723;DHT22;46574;52.818;6.516;2022-09-12T02:27:00;14.90;99.90
60723;DHT22;46574;52.818;6.516;2022-09-12T02:29:27;14.80;99.90
60723;DHT22;46574;52.818;6.516;2022-09-12T02:32:29;14.90;99.90
60723;DHT22;46574;52.818;6.516;2022-09-12T02:35:07;14.80;99.90
60723;DHT22;46574;52.818;6.516;2022-09-12T02:37:56;14.80;99.90
60723;DHT22;46574;52.818;6.516;2022-09-12T02:40:24;14.80;99.90
60723;DHT22;46574;52.818;6.516;2022-09-12T02:42:50;14.80;99.90
60723;DHT22;46574;52.818;6.516;2022-09-12T02:45:17;14.80;99.90
60723;DHT22;46574;52.818;6.516;2022-09-12T02:47:53;14.80;99.90
60723;DHT22;46574;52.818;6.516;2022-09-12T02:50:21;14.80;99.90
60723;DHT22;46574;52.818;6.516;2022-09-12T02:52:47;14.80;99.90
60723;DHT22;46574;52.818;6.516;2022-09-12T02:55:13;14.70;99.90
60723;DHT22;46574;52.818;6.516;2022-09-12T02:57:40;14.70;99.90
60723;DHT22;46574;52.818;6.516;2022-09-12T03:00:07;14.70;99.90
60723;DHT22;46574;52.818;6.516;2022-09-12T03:05:33;14.70;99.90
60723;DHT22;46574;52.818;6.516;2022-09-12T03:08:10;14.70;99.90
60723;DHT22;46574;52.818;6.516;2022-09-12T03:13:42;14.60;99.90
60723;DHT22;46574;52.818;6.516;2022-09-12T03:16:38;14.70;99.90
60723;DHT22;46574;52.818;6.516;2022-09-12T03:19:56;14.60;99.90
60723;DHT22;46574;52.818;6.516;2022-09-12T03:22:32;14.60;99.90
60723;DHT22;46574;52.818;6.516;2022-09-12T03:25:17;14.60;99.90
60723;DHT22;46574;52.818;6.516;2022-09-12T03:27:51;14.60;99.90
60723;DHT22;46574;52.818;6.516;2022-09-12T03:30:18;14.60;99.90
60723;DHT22;46574;52.818;6.516;2022-09-12T03:32:48;14.60;99.90
60723;DHT22;46574;52.818;6.516;2022-09-12T03:35:15;14.50;99.90
60723;DHT22;46574;52.818;6.516;2022-09-12T03:37:41;14.60;99.90
60723;DHT22;46574;52.818;6.516;2022-09-12T03:40:09;14.50;99.90
60723;DHT22;46574;52.818;6.516;2022-09-12T03:42:36;14.50;99.90
60723;DHT22;46574;52.818;6.516;2022-09-12T03:45:02;14.50;99.90
60723;DHT22;46574;52.818;6.516;2022-09-12T03:47:28;14.50;99.90
60723;DHT22;46574;52.818;6.516;2022-09-12T03:49:53;14.50;99.90
60723;DHT22;46574;52.818;6.516;2022-09-12T03:52:19;14.50;99.90
60723;DHT22;46574;52.818;6.516;2022-09-12T03:54:44;14.50;99.90
60723;DHT22;46574;52.818;6.516;2022-09-12T03:57:10;14.50;99.90
60723;DHT22;46574;52.818;6.516;2022-09-12T03:59:36;14.50;99.90
60723;DHT22;46574;52.818;6.516;2022-09-12T04:02:02;14.50;99.90
60723;DHT22;46574;52.818;6.516;2022-09-12T04:04:28;14.50;99.90
60723;DHT22;46574;52.818;6.516;2022-09-12T04:06:54;14.50;99.90
60723;DHT22;46574;52.818;6.516;2022-09-12T04:09:20;14.50;99.90
60723;DHT22;46574;52.818;6.516;2022-09-12T04:11:45;14.50;99.90
60723;DHT22;46574;52.818;6.516;2022-09-12T04:14:11;14.50;99.90
60723;DHT22;46574;52.818;6.516;2022-09-12T04:16:36;14.50;99.90
60723;DHT22;46574;52.818;6.516;2022-09-12T04:19:02;14.50;99.90
60723;DHT22;46574;52.818;6.516;2022-09-12T04:21:28;14.50;99.90
60723;DHT22;46574;52.818;6.516;2022-09-12T04:23:53;14.50;99.90
60723;DHT22;46574;52.818;6.516;2022-09-12T04:26:20;14.50;99.90
60723;DHT22;46574;52.818;6.516;2022-09-12T04:28:46;14.50;99.90
60723;DHT22;46574;52.818;6.516;2022-09-12T04:31:14;14.50;99.90
60723;DHT22;46574;52.818;6.516;2022-09-12T04:33:45;14.50;99.90
60723;DHT22;46574;52.818;6.516;2022-09-12T04:36:13;14.50;99.90
60723;DHT22;46574;52.818;6.516;2022-09-12T04:38:42;14.40;99.90
60723;DHT22;46574;52.818;6.516;2022-09-12T04:41:18;14.40;99.90
60723;DHT22;46574;52.818;6.516;2022-09-12T04:43:46;14.50;99.90
60723;DHT22;46574;52.818;6.516;2022-09-12T04:46:15;14.40;99.90
60723;DHT22;46574;52.818;6.516;2022-09-12T04:48:42;14.50;99.90
60723;DHT22;46574;52.818;6.516;2022-09-12T04:51:10;14.40;99.90
60723;DHT22;46574;52.818;6.516;2022-09-12T04:53:36;14.40;99.90
60723;DHT22;46574;52.818;6.516;2022-09-12T04:56:08;14.40;99.90
60723;DHT22;46574;52.818;6.516;2022-09-12T04:58:34;14.50;99.90
60723;DHT22;46574;52.818;6.516;2022-09-12T05:01:07;14.50;99.90
60723;DHT22;46574;52.818;6.516;2022-09-12T05:03:34;14.50;99.90
60723;DHT22;46574;52.818;6.516;2022-09-12T05:06:03;14.60;99.90
60723;DHT22;46574;52.818;6.516;2022-09-12T05:08:29;14.60;99.90
60723;DHT22;46574;52.818;6.516;2022-09-12T05:10:55;14.60;99.90
60723;DHT22;46574;52.818;6.516;2022-09-12T05:13:21;14.60;99.90
60723;DHT22;46574;52.818;6.516;2022-09-12T05:15:58;14.70;99.90
60723;DHT22;46574;52.818;6.516;2022-09-12T05:18:24;14.70;99.90
60723;DHT22;46574;52.818;6.516;2022-09-12T05:20:51;14.70;99.90
60723;DHT22;46574;52.818;6.516;2022-09-12T05:23:17;14.70;99.90
60723;DHT22;46574;52.818;6.516;2022-09-12T05:25:54;14.70;99.90
60723;DHT22;46574;52.818;6.516;2022-09-12T05:28:21;14.80;99.90
60723;DHT22;46574;52.818;6.516;2022-09-12T05:30:47;14.80;99.90
60723;DHT22;46574;52.818;6.516;2022-09-12T05:33:14;14.80;99.90
60723;DHT22;46574;52.818;6.516;2022-09-12T05:35:40;14.80;99.90
60723;DHT22;46574;52.818;6.516;2022-09-12T05:38:06;14.90;99.90
60723;DHT22;46574;52.818;6.516;2022-09-12T05:40:33;14.90;99.90
60723;DHT22;46574;52.818;6.516;2022-09-12T05:42:59;14.90;99.90
60723;DHT22;46574;52.818;6.516;2022-09-12T05:45:25;15.00;99.90
60723;DHT22;46574;52.818;6.516;2022-09-12T05:47:52;15.00;99.90
60723;DHT22;46574;52.818;6.516;2022-09-12T05:50:19;15.00;99.90
60723;DHT22;46574;52.818;6.516;2022-09-12T05:52:45;15.00;99.90
60723;DHT22;46574;52.818;6.516;2022-09-12T05:55:10;15.00;99.90
60723;DHT22;46574;52.818;6.516;2022-09-12T05:57:36;15.00;99.90
60723;DHT22;46574;52.818;6.516;2022-09-12T06:00:03;15.00;99.90
60723;DHT22;46574;52.818;6.516;2022-09-12T06:02:30;15.10;99.90
60723;DHT22;46574;52.818;6.516;2022-09-12T06:04:56;15.10;99.90
60723;DHT22;46574;52.818;6.516;2022-09-12T06:07:22;15.10;99.90
60723;DHT22;46574;52.818;6.516;2022-09-12T06:09:47;15.20;99.90
60723;DHT22;46574;52.818;6.516;2022-09-12T06:12:13;15.20;99.90
60723;DHT22;46574;52.818;6.516;2022-09-12T06:14:38;15.20;99.90
60723;DHT22;46574;52.818;6.516;2022-09-12T06:17:04;15.30;99.90
60723;DHT22;46574;52.818;6.516;2022-09-12T06:19:30;15.30;99.90
60723;DHT22;46574;52.818;6.516;2022-09-12T06:21:55;15.30;99.90
60723;DHT22;46574;52.818;6.516;2022-09-12T06:24:21;15.30;99.90
60723;DHT22;46574;52.818;6.516;2022-09-12T06:26:48;15.30;99.90
60723;DHT22;46574;52.818;6.516;2022-09-12T06:29:14;15.30;99.90
60723;DHT22;46574;52.818;6.516;2022-09-12T06:31:41;15.40;99.90
60723;DHT22;46574;52.818;6.516;2022-09-12T06:34:09;15.40;99.90
60723;DHT22;46574;52.818;6.516;2022-09-12T06:36:38;15.40;99.90
60723;DHT22;46574;52.818;6.516;2022-09-12T06:39:10;15.50;99.90
60723;DHT22;46574;52.818;6.516;2022-09-12T06:41:36;15.50;99.90
60723;DHT22;46574;52.818;6.516;2022-09-12T06:44:02;15.50;99.90
60723;DHT22;46574;52.818;6.516;2022-09-12T06:46:29;15.60;99.90
60723;DHT22;46574;52.818;6.516;2022-09-12T06:48:56;15.60;99.90
60723;DHT22;46574;52.818;6.516;2022-09-12T06:51:22;15.60;99.90
60723;DHT22;46574;52.818;6.516;2022-09-12T06:53:48;15.60;99.90
60723;DHT22;46574;52.818;6.516;2022-09-12T06:56:18;15.70;99.90
60723;DHT22;46574;52.818;6.516;2022-09-12T06:58:45;15.70;99.90
60723;DHT22;46574;52.818;6.516;2022-09-12T07:01:17;15.70;99.90
60723;DHT22;46574;52.818;6.516;2022-09-12T07:03:46;15.80;99.90
60723;DHT22;46574;52.818;6.516;2022-09-12T07:06:16;15.80;99.90
60723;DHT22;46574;52.818;6.516;2022-09-12T07:08:42;15.80;99.90
60723;DHT22;46574;52.818;6.516;2022-09-12T07:13:39;15.90;99.90
60723;DHT22;46574;52.818;6.516;2022-09-12T07:16:06;15.90;99.90
60723;DHT22;46574;52.818;6.516;2022-09-12T07:18:33;15.90;99.90
60723;DHT22;46574;52.818;6.516;2022-09-12T07:21:02;16.00;99.90
60723;DHT22;46574;52.818;6.516;2022-09-12T07:23:29;16.00;99.90
60723;DHT22;46574;52.818;6.516;2022-09-12T07:25:56;16.10;99.90
60723;DHT22;46574;52.818;6.516;2022-09-12T07:28:26;16.10;99.90
60723;DHT22;46574;52.818;6.516;2022-09-12T07:30:52;16.20;99.90
60723;DHT22;46574;52.818;6.516;2022-09-12T07:33:23;16.20;99.90
60723;DHT22;46574;52.818;6.516;2022-09-12T07:35:51;16.30;99.90
60723;DHT22;46574;52.818;6.516;2022-09-12T07:38:19;16.40;99.90
60723;DHT22;46574;52.818;6.516;2022-09-12T07:40:45;16.40;99.90
60723;DHT22;46574;52.818;6.516;2022-09-12T07:43:10;16.50;99.90
60723;DHT22;46574;52.818;6.516;2022-09-12T07:45:36;16.50;99.90
60723;DHT22;46574;52.818;6.516;2022-09-12T07:48:02;16.60;99.90
60723;DHT22;46574;52.818;6.516;2022-09-12T07:50:28;16.60;99.90
60723;DHT22;46574;52.818;6.516;2022-09-12T07:52:54;16.60;99.90
60723;DHT22;46574;52.818;6.516;2022-09-12T07:55:20;16.70;99.90
60723;DHT22;46574;52.818;6.516;2022-09-12T07:57:50;16.70;99.90
60723;DHT22;46574;52.818;6.516;2022-09-12T08:00:17;16.70;99.90
60723;DHT22;46574;52.818;6.516;2022-09-12T08:02:43;16.80;99.90
60723;DHT22;46574;52.818;6.516;2022-09-12T08:05:08;16.80;99.90
60723;DHT22;46574;52.818;6.516;2022-09-12T08:07:34;16.90;99.90
60723;DHT22;46574;52.818;6.516;2022-09-12T08:10:00;16.90;99.90
60723;DHT22;46574;52.818;6.516;2022-09-12T08:12:29;16.90;99.90
60723;DHT22;46574;52.818;6.516;2022-09-12T08:14:56;17.00;99.90
60723;DHT22;46574;52.818;6.516;2022-09-12T08:17:22;17.00;99.90
60723;DHT22;46574;52.818;6.516;2022-09-12T08:19:48;17.10;99.90
60723;DHT22;46574;52.818;6.516;2022-09-12T08:22:13;17.20;99.90
60723;DHT22;46574;52.818;6.516;2022-09-12T08:24:39;17.20;99.90
60723;DHT22;46574;52.818;6.516;2022-09-12T08:27:06;17.30;99.90
60723;DHT22;46574;52.818;6.516;2022-09-12T08:29:32;17.40;99.90
60723;DHT22;46574;52.818;6.516;2022-09-12T08:31:58;17.40;99.90
60723;DHT22;46574;52.818;6.516;2022-09-12T08:34:23;17.50;99.90
60723;DHT22;46574;52.818;6.516;2022-09-12T08:36:50;17.60;99.90
60723;DHT22;46574;52.818;6.516;2022-09-12T08:39:19;17.60;99.90
60723;DHT22;46574;52.818;6.516;2022-09-12T08:41:59;17.70;99.90
60723;DHT22;46574;52.818;6.516;2022-09-12T08:47:30;17.90;99.90
60723;DHT22;46574;52.818;6.516;2022-09-12T08:50:05;18.00;99.90
60723;DHT22;46574;52.818;6.516;2022-09-12T08:52:46;18.10;99.90
60723;DHT22;46574;52.818;6.516;2022-09-12T08:57:51;18.20;99.90
60723;DHT22;46574;52.818;6.516;2022-09-12T09:00:18;18.40;99.90
60723;DHT22;46574;52.818;6.516;2022-09-12T09:10:52;18.80;99.90
60723;DHT22;46574;52.818;6.516;2022-09-12T09:16:32;18.80;99.90
60723;DHT22;46574;52.818;6.516;2022-09-12T09:22:04;18.90;99.90
60723;DHT22;46574;52.818;6.516;2022-09-12T09:24:38;18.90;99.90
60723;DHT22;46574;52.818;6.516;2022-09-12T09:29:47;19.10;99.90
60723;DHT22;46574;52.818;6.516;2022-09-12T09:32:18;19.20;99.90
60723;DHT22;46574;52.818;6.516;2022-09-12T09:34:47;19.30;99.90
60723;DHT22;46574;52.818;6.516;2022-09-12T09:40:14;19.80;99.90
60723;DHT22;46574;52.818;6.516;2022-09-12T09:45:44;20.00;99.90
60723;DHT22;46574;52.818;6.516;2022-09-12T09:51:08;20.10;99.90
60723;DHT22;46574;52.818;6.516;2022-09-12T09:53:47;20.10;99.90
60723;DHT22;46574;52.818;6.516;2022-09-12T09:56:33;20.10;99.90
60723;DHT22;46574;52.818;6.516;2022-09-12T09:59:29;20.20;99.90
60723;DHT22;46574;52.818;6.516;2022-09-12T10:01:59;20.20;99.90
60723;DHT22;46574;52.818;6.516;2022-09-12T10:04:33;20.20;99.90
60723;DHT22;46574;52.818;6.516;2022-09-12T10:07:01;20.40;99.90
60723;DHT22;46574;52.818;6.516;2022-09-12T10:09:32;20.60;99.90
60723;DHT22;46574;52.818;6.516;2022-09-12T10:11:59;20.60;99.90
60723;DHT22;46574;52.818;6.516;2022-09-12T10:15:01;20.80;99.90
60723;DHT22;46574;52.818;6.516;2022-09-12T10:17:38;21.00;99.90
60723;DHT22;46574;52.818;6.516;2022-09-12T10:23:20;21.40;99.90
60723;DHT22;46574;52.818;6.516;2022-09-12T10:25:52;21.60;99.90
60723;DHT22;46574;52.818;6.516;2022-09-12T10:28:39;21.70;99.90
60723;DHT22;46574;52.818;6.516;2022-09-12T10:31:07;21.70;99.90
60723;DHT22;46574;52.818;6.516;2022-09-12T10:33:46;21.80;99.90
60723;DHT22;46574;52.818;6.516;2022-09-12T10:36:18;22.00;99.90
60723;DHT22;46574;52.818;6.516;2022-09-12T10:38:52;22.00;99.90
60723;DHT22;46574;52.818;6.516;2022-09-12T10:41:18;22.00;99.90
60723;DHT22;46574;52.818;6.516;2022-09-12T10:43:46;22.00;99.90
60723;DHT22;46574;52.818;6.516;2022-09-12T10:48:48;22.20;99.90
60723;DHT22;46574;52.818;6.516;2022-09-12T10:53:50;22.20;99.90
60723;DHT22;46574;52.818;6.516;2022-09-12T10:56:28;22.10;99.90
60723;DHT22;46574;52.818;6.516;2022-09-12T11:02:27;22.10;99.90
60723;DHT22;46574;52.818;6.516;2022-09-12T11:22:07;22.00;99.90
60723;DHT22;46574;52.818;6.516;2022-09-12T11:31:03;22.00;99.90
60723;DHT22;46574;52.818;6.516;2022-09-12T11:33:46;22.10;99.90
60723;DHT22;46574;52.818;6.516;2022-09-12T11:36:27;22.20;99.90
60723;DHT22;46574;52.818;6.516;2022-09-12T11:39:10;22.20;99.90
60723;DHT22;46574;52.818;6.516;2022-09-12T11:41:40;22.20;99.90
60723;DHT22;46574;52.818;6.516;2022-09-12T11:46:50;22.30;99.90
60723;DHT22;46574;52.818;6.516;2022-09-12T11:49:26;22.40;99.90
60723;DHT22;46574;52.818;6.516;2022-09-12T11:54:52;22.30;99.90
60723;DHT22;46574;52.818;6.516;2022-09-12T12:00:20;22.30;99.90
60723;DHT22;46574;52.818;6.516;2022-09-12T12:05:52;22.30;99.90
60723;DHT22;46574;52.818;6.516;2022-09-12T12:08:24;22.20;99.90
60723;DHT22;46574;52.818;6.516;2022-09-12T12:10:55;22.30;99.90
60723;DHT22;46574;52.818;6.516;2022-09-12T12:13:47;22.30;99.90
60723;DHT22;46574;52.818;6.516;2022-09-12T12:16:24;22.50;99.90
60723;DHT22;46574;52.818;6.516;2022-09-12T12:21:42;22.50;99.90
60723;DHT22;46574;52.818;6.516;2022-09-12T12:37:46;22.60;99.90
60723;DHT22;46574;52.818;6.516;2022-09-12T12:50:23;22.70;99.80
60723;DHT22;46574;52.818;6.516;2022-09-12T12:52:51;22.80;98.30
60723;DHT22;46574;52.818;6.516;2022-09-12T12:55:25;22.80;90.60
60723;DHT22;46574;52.818;6.516;2022-09-12T12:57:56;22.80;95.80
60723;DHT22;46574;52.818;6.516;2022-09-12T13:05:43;22.80;91.70
60723;DHT22;46574;52.818;6.516;2022-09-12T13:10:53;22.80;94.80
60723;DHT22;46574;52.818;6.516;2022-09-12T13:13:50;22.90;94.30
60723;DHT22;46574;52.818;6.516;2022-09-12T13:16:55;22.90;93.50
60723;DHT22;46574;52.818;6.516;2022-09-12T13:19:28;22.90;90.40
60723;DHT22;46574;52.818;6.516;2022-09-12T13:22:03;23.00;93.90
60723;DHT22;46574;52.818;6.516;2022-09-12T13:24:29;23.00;96.00
60723;DHT22;46574;52.818;6.516;2022-09-12T13:26:56;23.00;94.90
60723;DHT22;46574;52.818;6.516;2022-09-12T13:29:26;23.00;95.80
60723;DHT22;46574;52.818;6.516;2022-09-12T13:31:55;23.10;93.40
60723;DHT22;46574;52.818;6.516;2022-09-12T13:34:32;23.20;93.90
60723;DHT22;46574;52.818;6.516;2022-09-12T13:39:47;23.20;91.40
60723;DHT22;46574;52.818;6.516;2022-09-12T13:45:03;23.30;88.10
60723;DHT22;46574;52.818;6.516;2022-09-12T13:47:35;23.30;89.60
60723;DHT22;46574;52.818;6.516;2022-09-12T13:50:04;23.30;91.10
60723;DHT22;46574;52.818;6.516;2022-09-12T13:52:33;23.40;87.50
60723;DHT22;46574;52.818;6.516;2022-09-12T13:55:03;23.40;83.70
60723;DHT22;46574;52.818;6.516;2022-09-12T13:57:34;23.40;82.60
60723;DHT22;46574;52.818;6.516;2022-09-12T14:00:14;23.40;84.30
60723;DHT22;46574;52.818;6.516;2022-09-12T14:02:45;23.30;81.60
60723;DHT22;46574;52.818;6.516;2022-09-12T14:05:20;23.40;82.70
60723;DHT22;46574;52.818;6.516;2022-09-12T14:07:56;23.40;82.60
60723;DHT22;46574;52.818;6.516;2022-09-12T14:10:39;23.40;81.00
60723;DHT22;46574;52.818;6.516;2022-09-12T14:13:20;23.40;81.50
60723;DHT22;46574;52.818;6.516;2022-09-12T14:15:49;23.30;75.90
60723;DHT22;46574;52.818;6.516;2022-09-12T14:18:24;23.40;79.50
60723;DHT22;46574;52.818;6.516;2022-09-12T14:20:50;23.30;78.40
60723;DHT22;46574;52.818;6.516;2022-09-12T14:23:25;23.40;78.70
60723;DHT22;46574;52.818;6.516;2022-09-12T14:25:52;23.40;78.90
60723;DHT22;46574;52.818;6.516;2022-09-12T14:28:19;23.40;79.20
60723;DHT22;46574;52.818;6.516;2022-09-12T14:31:27;23.40;78.20
60723;DHT22;46574;52.818;6.516;2022-09-12T14:33:54;23.50;77.20
60723;DHT22;46574;52.818;6.516;2022-09-12T14:36:29;23.40;78.20
60723;DHT22;46574;52.818;6.516;2022-09-12T14:39:02;23.50;76.40
60723;DHT22;46574;52.818;6.516;2022-09-12T14:41:31;23.50;76.00
60723;DHT22;46574;52.818;6.516;2022-09-12T14:43:59;23.50;77.40
60723;DHT22;46574;52.818;6.516;2022-09-12T14:46:33;23.50;77.40
60723;DHT22;46574;52.818;6.516;2022-09-12T14:54:34;23.30;75.50
60723;DHT22;46574;52.818;6.516;2022-09-12T14:57:06;23.30;75.80
60723;DHT22;46574;52.818;6.516;2022-09-12T14:59:40;23.30;74.30
60723;DHT22;46574;52.818;6.516;2022-09-12T15:04:39;23.20;73.30
60723;DHT22;46574;52.818;6.516;2022-09-12T15:07:43;23.20;73.70
60723;DHT22;46574;52.818;6.516;2022-09-12T15:15:30;23.20;74.50
60723;DHT22;46574;52.818;6.516;2022-09-12T15:17:56;23.20;74.80
60723;DHT22;46574;52.818;6.516;2022-09-12T15:20:22;23.30;74.10
60723;DHT22;46574;52.818;6.516;2022-09-12T15:22:48;23.20;74.50
60723;DHT22;46574;52.818;6.516;2022-09-12T15:25:15;23.20;74.50
60723;DHT22;46574;52.818;6.516;2022-09-12T15:27:40;23.30;74.60
60723;DHT22;46574;52.818;6.516;2022-09-12T15:30:07;23.30;74.60
60723;DHT22;46574;52.818;6.516;2022-09-12T15:32:35;23.30;75.30
60723;DHT22;46574;52.818;6.516;2022-09-12T15:35:01;23.40;74.90
60723;DHT22;46574;52.818;6.516;2022-09-12T15:37:27;23.40;73.50
60723;DHT22;46574;52.818;6.516;2022-09-12T15:39:53;23.50;74.50
60723;DHT22;46574;52.818;6.516;2022-09-12T15:42:27;23.50;74.30
60723;DHT22;46574;52.818;6.516;2022-09-12T15:44:53;23.50;74.40
60723;DHT22;46574;52.818;6.516;2022-09-12T15:47:19;23.50;75.60
60723;DHT22;46574;52.818;6.516;2022-09-12T15:49:46;23.50;74.20
60723;DHT22;46574;52.818;6.516;2022-09-12T15:52:14;23.50;73.00
60723;DHT22;46574;52.818;6.516;2022-09-12T15:54:40;23.50;71.40
60723;DHT22;46574;52.818;6.516;2022-09-12T15:57:06;23.50;72.10
60723;DHT22;46574;52.818;6.516;2022-09-12T15:59:32;23.40;72.00
60723;DHT22;46574;52.818;6.516;2022-09-12T16:01:58;23.30;72.70
60723;DHT22;46574;52.818;6.516;2022-09-12T16:04:27;23.30;73.10
60723;DHT22;46574;52.818;6.516;2022-09-12T16:06:54;23.20;73.40
60723;DHT22;46574;52.818;6.516;2022-09-12T16:09:21;23.20;73.00
60723;DHT22;46574;52.818;6.516;2022-09-12T16:11:47;23.10;75.40
60723;DHT22;46574;52.818;6.516;2022-09-12T16:14:14;23.10;77.10
60723;DHT22;46574;52.818;6.516;2022-09-12T16:16:40;23.00;78.50
60723;DHT22;46574;52.818;6.516;2022-09-12T16:19:06;23.00;81.10
60723;DHT22;46574;52.818;6.516;2022-09-12T16:21:34;22.90;82.30
60723;DHT22;46574;52.818;6.516;2022-09-12T16:24:00;23.00;82.70
60723;DHT22;46574;52.818;6.516;2022-09-12T16:26:25;23.00;81.70
60723;DHT22;46574;52.818;6.516;2022-09-12T16:28:54;23.00;80.70
60723;DHT22;46574;52.818;6.516;2022-09-12T16:31:20;23.00;81.30
60723;DHT22;46574;52.818;6.516;2022-09-12T16:33:47;23.00;81.80
60723;DHT22;46574;52.818;6.516;2022-09-12T16:36:15;23.10;82.40
60723;DHT22;46574;52.818;6.516;2022-09-12T16:38:46;23.20;82.70
60723;DHT22;46574;52.818;6.516;2022-09-12T16:41:14;23.20;83.20
60723;DHT22;46574;52.818;6.516;2022-09-12T16:43:40;23.30;82.90
60723;DHT22;46574;52.818;6.516;2022-09-12T16:46:19;23.30;81.10
60723;DHT22;46574;52.818;6.516;2022-09-12T16:48:50;23.30;79.50
60723;DHT22;46574;52.818;6.516;2022-09-12T16:51:21;23.30;79.90
60723;DHT22;46574;52.818;6.516;2022-09-12T16:53:48;23.30;80.50
60723;DHT22;46574;52.818;6.516;2022-09-12T16:56:13;23.20;80.40
60723;DHT22;46574;52.818;6.516;2022-09-12T16:58:40;23.20;81.60
60723;DHT22;46574;52.818;6.516;2022-09-12T17:01:14;23.10;81.90
60723;DHT22;46574;52.818;6.516;2022-09-12T17:03:40;23.00;82.40
60723;DHT22;46574;52.818;6.516;2022-09-12T17:06:15;22.90;84.60
60723;DHT22;46574;52.818;6.516;2022-09-12T17:08:43;22.80;85.80
60723;DHT22;46574;52.818;6.516;2022-09-12T17:11:11;22.80;88.00
60723;DHT22;46574;52.818;6.516;2022-09-12T17:13:38;22.60;89.50
60723;DHT22;46574;52.818;6.516;2022-09-12T17:16:08;22.50;91.10
60723;DHT22;46574;52.818;6.516;2022-09-12T17:18:38;22.50;91.30
60723;DHT22;46574;52.818;6.516;2022-09-12T17:21:05;22.40;92.30
60723;DHT22;46574;52.818;6.516;2022-09-12T17:23:31;22.30;93.30
60723;DHT22;46574;52.818;6.516;2022-09-12T17:25:57;22.20;94.20
60723;DHT22;46574;52.818;6.516;2022-09-12T17:28:23;22.10;96.10
60723;DHT22;46574;52.818;6.516;2022-09-12T17:30:56;22.10;99.10
60723;DHT22;46574;52.818;6.516;2022-09-12T17:33:22;22.00;98.50
60723;DHT22;46574;52.818;6.516;2022-09-12T17:35:48;21.90;99.50
60723;DHT22;46574;52.818;6.516;2022-09-12T17:38:14;21.80;99.90
60723;DHT22;46574;52.818;6.516;2022-09-12T17:40:41;21.80;99.90
60723;DHT22;46574;52.818;6.516;2022-09-12T17:43:06;21.70;99.90
60723;DHT22;46574;52.818;6.516;2022-09-12T17:45:32;21.60;99.90
60723;DHT22;46574;52.818;6.516;2022-09-12T17:47:58;21.60;99.90
60723;DHT22;46574;52.818;6.516;2022-09-12T17:50:24;21.50;99.90
60723;DHT22;46574;52.818;6.516;2022-09-12T17:52:50;21.50;99.90
60723;DHT22;46574;52.818;6.516;2022-09-12T17:55:15;21.40;99.90
60723;DHT22;46574;52.818;6.516;2022-09-12T17:57:41;21.30;99.90
60723;DHT22;46574;52.818;6.516;2022-09-12T18:00:08;21.30;99.90
60723;DHT22;46574;52.818;6.516;2022-09-12T18:02:34;21.20;99.90
60723;DHT22;46574;52.818;6.516;2022-09-12T18:05:00;21.20;99.90
60723;DHT22;46574;52.818;6.516;2022-09-12T18:07:30;21.10;99.90
60723;DHT22;46574;52.818;6.516;2022-09-12T18:09:57;21.10;99.90
60723;DHT22;46574;52.818;6.516;2022-09-12T18:12:23;21.00;99.90
60723;DHT22;46574;52.818;6.516;2022-09-12T18:14:49;21.00;99.90
60723;DHT22;46574;52.818;6.516;2022-09-12T18:17:15;21.00;99.90
60723;DHT22;46574;52.818;6.516;2022-09-12T18:19:40;20.90;99.90